CheckWX is a tool to help pilots better visualize weather data.  It is not intended as a substitute for an official pre-flight weather briefing.

00:23:00 UTC

GVBA METAR
Rabil Airport
Rabil, Cape Verde
Current

5 hours ago

GVBA 241900Z 01013KT 9999 FEW014 BKN100 22/17 Q1014 NOSIG
Observed
Feb-24 @ 19:00 UTC
Wind
  • 010° at 13 KTS
Visibility
10,000+ meters
Flight Rules
VFR
Cloud Levels
  • Few at 1,400' AGL
  • Broken at 10,000' AGL
Temperature
22°C / 72°F
Dewpoint
17°C / 63°F
Humidity
73%
Altimeter
29.94" Hg
Pressure
1013.92 hPa
Previous

6 hours ago

GVBA 241800Z 36012KT 9999 FEW014 SCT100 23/16 Q1014 NOSIG
Observed
Feb-24 @ 18:00 UTC
Wind
  • 360° at 12 KTS
Visibility
10,000+ meters
Flight Rules
VFR
Cloud Levels
  • Few at 1,400' AGL
  • Scattered at 10,000' AGL
Temperature
23°C / 73°F
Dewpoint
16°C / 61°F
Humidity
65%
Altimeter
29.94" Hg
Pressure
1013.92 hPa
Previous

7 hours ago

GVBA 241700Z 01013KT 9999 FEW014 23/16 Q1014 NOSIG
Observed
Feb-24 @ 17:00 UTC
Wind
  • 010° at 13 KTS
Visibility
10,000+ meters
Flight Rules
VFR
Cloud Levels
  • Few at 1,400' AGL
Temperature
23°C / 73°F
Dewpoint
16°C / 61°F
Humidity
65%
Altimeter
29.94" Hg
Pressure
1013.92 hPa